createdAt,value
2018-07-07T00:00:22.497Z,0.00
2018-07-07T00:01:22.473Z,0.00
2018-07-07T00:02:22.449Z,0.00
2018-07-07T00:03:22.422Z,0.00
2018-07-07T00:04:22.400Z,0.00
2018-07-07T00:05:22.370Z,0.00
2018-07-07T00:06:22.344Z,0.00
2018-07-07T00:07:22.319Z,0.00
2018-07-07T00:08:22.296Z,0.00
2018-07-07T00:09:22.271Z,0.00
2018-07-07T00:10:22.244Z,0.00
2018-07-07T00:11:22.219Z,0.00
2018-07-07T00:12:22.193Z,0.00
2018-07-07T00:13:22.168Z,0.00
2018-07-07T00:14:22.142Z,0.00
2018-07-07T00:15:22.122Z,0.00
2018-07-07T00:16:22.093Z,0.00
2018-07-07T00:17:22.064Z,0.00
2018-07-07T00:18:22.038Z,0.00
2018-07-07T00:19:22.013Z,0.00
2018-07-07T00:20:21.992Z,0.00
2018-07-07T00:21:21.966Z,0.00
2018-07-07T00:22:21.948Z,0.00
2018-07-07T00:23:21.912Z,0.00
2018-07-07T00:24:21.887Z,0.00
2018-07-07T00:25:21.865Z,0.00
2018-07-07T00:26:21.834Z,0.00
2018-07-07T00:27:21.808Z,0.00
2018-07-07T00:28:21.785Z,0.00
2018-07-07T00:29:21.960Z,0.00
2018-07-07T00:30:21.735Z,0.00
2018-07-07T00:31:21.706Z,0.00
2018-07-07T00:32:21.685Z,0.00
2018-07-07T00:33:21.656Z,0.00
2018-07-07T00:34:21.632Z,0.00
2018-07-07T00:35:21.606Z,0.00
2018-07-07T00:36:21.579Z,0.00
2018-07-07T00:37:22.768Z,0.00
2018-07-07T00:38:21.528Z,0.00
2018-07-07T00:39:21.503Z,0.00
2018-07-07T00:40:21.477Z,0.00
2018-07-07T00:41:21.452Z,0.00
2018-07-07T00:42:21.428Z,0.00
2018-07-07T00:43:21.401Z,0.00
2018-07-07T00:44:21.375Z,0.00
2018-07-07T00:45:21.351Z,0.00
2018-07-07T00:46:21.326Z,0.00
2018-07-07T00:47:21.305Z,0.00
2018-07-07T00:48:21.274Z,0.00
2018-07-07T00:49:22.098Z,0.00
2018-07-07T00:50:21.221Z,0.00
2018-07-07T00:51:21.195Z,0.00
2018-07-07T00:52:21.170Z,0.00
2018-07-07T00:53:21.151Z,0.00
2018-07-07T00:54:21.146Z,0.00
2018-07-07T00:55:21.096Z,0.00
2018-07-07T00:56:21.070Z,0.00
2018-07-07T00:57:21.043Z,0.00
2018-07-07T00:58:21.016Z,0.00
2018-07-07T00:59:20.992Z,0.00
2018-07-07T01:00:20.966Z,0.00
2018-07-07T01:01:20.941Z,0.00
2018-07-07T01:02:20.915Z,0.00
2018-07-07T01:03:20.889Z,0.00
2018-07-07T01:04:20.871Z,0.00
2018-07-07T01:05:20.844Z,0.00
2018-07-07T01:06:21.019Z,0.00
2018-07-07T01:07:20.939Z,0.00
2018-07-07T01:08:20.764Z,0.00
2018-07-07T01:09:20.770Z,0.00
2018-07-07T01:10:20.712Z,0.00
2018-07-07T01:11:20.685Z,0.00
2018-07-07T01:12:20.659Z,0.00
2018-07-07T01:13:20.637Z,0.00
2018-07-07T01:14:20.612Z,0.00
2018-07-07T01:15:20.589Z,0.00
2018-07-07T01:16:20.559Z,0.00
2018-07-07T01:17:20.533Z,0.00
2018-07-07T01:18:20.512Z,0.00
2018-07-07T01:19:20.484Z,0.00
2018-07-07T01:20:20.467Z,0.00
2018-07-07T01:21:20.430Z,0.00
2018-07-07T01:22:20.405Z,0.00
2018-07-07T01:23:20.379Z,0.00
2018-07-07T01:24:20.354Z,0.00
2018-07-07T01:25:20.343Z,0.00
2018-07-07T01:26:20.305Z,0.00
2018-07-07T01:27:20.288Z,0.00
2018-07-07T01:28:20.258Z,0.00
2018-07-07T01:29:20.236Z,0.00
2018-07-07T01:30:20.351Z,0.00
2018-07-07T01:31:20.175Z,0.00
2018-07-07T01:32:20.149Z,0.00
2018-07-07T01:33:20.125Z,0.00
2018-07-07T01:34:20.103Z,0.00
2018-07-07T01:35:20.073Z,0.00
2018-07-07T01:36:20.050Z,0.00
2018-07-07T01:37:20.025Z,0.00
2018-07-07T01:38:20.003Z,0.00
2018-07-07T01:39:19.973Z,0.00
2018-07-07T01:40:19.951Z,0.00
2018-07-07T01:41:19.921Z,0.00
2018-07-07T01:42:19.896Z,0.00
2018-07-07T01:43:19.874Z,0.00
2018-07-07T01:44:19.844Z,0.00
2018-07-07T01:45:19.825Z,0.00
2018-07-07T01:46:19.794Z,0.00
2018-07-07T01:47:19.769Z,0.00
2018-07-07T01:48:19.744Z,0.00
2018-07-07T01:49:19.717Z,0.00
2018-07-07T01:50:19.690Z,0.00
2018-07-07T01:51:19.665Z,0.00
2018-07-07T01:52:19.641Z,0.00
2018-07-07T01:53:19.620Z,0.00
2018-07-07T01:54:19.592Z,0.00
2018-07-07T01:55:19.565Z,0.00
2018-07-07T01:56:19.539Z,0.00
2018-07-07T01:57:19.515Z,0.00
2018-07-07T01:58:19.487Z,0.00
2018-07-07T01:59:19.961Z,0.00
2018-07-07T02:00:19.439Z,0.00
2018-07-07T02:01:19.413Z,0.00
2018-07-07T02:02:19.389Z,0.00
2018-07-07T02:03:19.361Z,0.00
2018-07-07T02:04:19.338Z,0.00
2018-07-07T02:05:19.311Z,4.00
2018-07-07T02:06:19.285Z,4.00
2018-07-07T02:07:19.258Z,4.00
2018-07-07T02:08:19.233Z,4.00
2018-07-07T02:09:19.206Z,4.00
2018-07-07T02:10:19.186Z,0.00
2018-07-07T02:11:19.155Z,4.00
2018-07-07T02:12:19.129Z,4.00
2018-07-07T02:13:19.107Z,4.00
2018-07-07T02:14:19.081Z,8.00
2018-07-07T02:15:19.055Z,4.00
2018-07-07T02:16:19.034Z,4.00
2018-07-07T02:17:19.003Z,8.00
2018-07-07T02:18:18.977Z,4.00
2018-07-07T02:19:18.952Z,8.00
2018-07-07T02:20:18.924Z,12.00
2018-07-07T02:21:18.900Z,12.00
2018-07-07T02:22:18.875Z,12.00
2018-07-07T02:23:18.856Z,16.00
2018-07-07T02:24:18.823Z,16.00
2018-07-07T02:25:18.803Z,16.00
2018-07-07T02:26:18.776Z,20.00
2018-07-07T02:27:18.750Z,20.00
2018-07-07T02:28:18.725Z,24.00
2018-07-07T02:29:18.847Z,28.00
2018-07-07T02:30:18.672Z,28.00
2018-07-07T02:31:18.648Z,32.00
2018-07-07T02:32:18.623Z,36.00
2018-07-07T02:33:18.597Z,40.00
2018-07-07T02:34:18.575Z,44.00
2018-07-07T02:35:18.695Z,48.00
2018-07-07T02:36:18.519Z,56.00
2018-07-07T02:37:18.497Z,60.00
2018-07-07T02:38:18.477Z,68.00
2018-07-07T02:39:18.446Z,76.00
2018-07-07T02:40:18.419Z,84.00
2018-07-07T02:41:18.390Z,92.00
2018-07-07T02:42:18.365Z,100.00
2018-07-07T02:43:18.339Z,112.00
2018-07-07T02:44:18.315Z,120.00
2018-07-07T02:45:18.290Z,132.00
2018-07-07T02:46:18.404Z,144.00
2018-07-07T02:47:18.238Z,160.00
2018-07-07T02:48:18.213Z,176.00
2018-07-07T02:49:18.190Z,192.00
2018-07-07T02:50:18.164Z,208.00
2018-07-07T02:51:18.136Z,228.00
2018-07-07T02:52:18.112Z,252.00
2018-07-07T02:53:18.084Z,276.00
2018-07-07T02:54:18.061Z,300.00
2018-07-07T02:55:18.033Z,328.00
2018-07-07T02:56:18.008Z,356.00
2018-07-07T02:57:18.187Z,380.00
2018-07-07T02:58:17.959Z,408.00
2018-07-07T02:59:17.933Z,436.00
2018-07-07T03:00:17.914Z,468.00
2018-07-07T03:01:17.896Z,496.00
2018-07-07T03:02:17.855Z,524.00
2018-07-07T03:03:17.894Z,556.00
2018-07-07T03:04:17.842Z,592.00
2018-07-07T03:05:17.781Z,620.00
2018-07-07T03:06:17.755Z,652.00
2018-07-07T03:07:17.729Z,684.00
2018-07-07T03:08:17.705Z,720.00
2018-07-07T03:09:17.681Z,760.00
2018-07-07T03:10:17.655Z,800.00
2018-07-07T03:11:17.628Z,844.00
2018-07-07T03:12:17.602Z,888.00
2018-07-07T03:13:17.579Z,936.00
2018-07-07T03:14:17.550Z,988.00
2018-07-07T03:15:17.525Z,1044.00
2018-07-07T03:16:17.498Z,1108.00
2018-07-07T03:17:17.475Z,1172.00
2018-07-07T03:18:17.449Z,1224.00
2018-07-07T03:19:17.424Z,1272.00
2018-07-07T03:20:17.401Z,1328.00
2018-07-07T03:21:17.371Z,1388.00
2018-07-07T03:22:17.348Z,1452.00
2018-07-07T03:23:17.320Z,1512.00
2018-07-07T03:24:17.294Z,1568.00
2018-07-07T03:25:17.269Z,1616.00
2018-07-07T03:26:17.244Z,1648.00
2018-07-07T03:27:17.218Z,1672.00
2018-07-07T03:28:17.193Z,1688.00
2018-07-07T03:29:17.195Z,1716.00
2018-07-07T03:30:17.149Z,1764.00
2018-07-07T03:31:17.118Z,1820.00
2018-07-07T03:32:17.096Z,1872.00
2018-07-07T03:33:17.069Z,1920.00
2018-07-07T03:34:17.042Z,1972.00
2018-07-07T03:35:17.015Z,2024.00
2018-07-07T03:36:16.989Z,2088.00
2018-07-07T03:37:16.967Z,2152.00
2018-07-07T03:38:16.943Z,2224.00
2018-07-07T03:39:16.915Z,2324.00
2018-07-07T03:40:16.889Z,2448.00
2018-07-07T03:41:16.865Z,2572.00
2018-07-07T03:42:16.899Z,2636.00
2018-07-07T03:43:16.813Z,2704.00
2018-07-07T03:44:16.789Z,2772.00
2018-07-07T03:45:16.761Z,2720.00
2018-07-07T03:46:16.743Z,2632.00
2018-07-07T03:47:16.709Z,2640.00
2018-07-07T03:48:16.685Z,2676.00
2018-07-07T03:49:16.687Z,2724.00
2018-07-07T03:50:16.635Z,2768.00
2018-07-07T03:51:16.611Z,2816.00
2018-07-07T03:52:16.586Z,2876.00
2018-07-07T03:53:16.558Z,2956.00
2018-07-07T03:54:16.534Z,3096.00
2018-07-07T03:55:16.511Z,3152.00
2018-07-07T03:56:16.482Z,3336.00
2018-07-07T03:57:16.458Z,3572.00
2018-07-07T03:58:16.434Z,3960.00
2018-07-07T03:59:16.407Z,4324.00
2018-07-07T04:00:16.382Z,4512.00
2018-07-07T04:01:16.358Z,4240.00
2018-07-07T04:02:16.330Z,4212.00
2018-07-07T04:03:16.304Z,4348.00
2018-07-07T04:04:16.279Z,4896.00
2018-07-07T04:05:16.257Z,6088.00
2018-07-07T04:06:16.231Z,6880.00
2018-07-07T04:07:16.246Z,7044.00
2018-07-07T04:08:16.181Z,7176.00
2018-07-07T04:09:16.158Z,7344.00
2018-07-07T04:10:16.129Z,7536.00
2018-07-07T04:11:16.103Z,7664.00
2018-07-07T04:12:16.080Z,8008.00
2018-07-07T04:13:16.053Z,8088.00
2018-07-07T04:14:16.179Z,8268.00
2018-07-07T04:15:16.007Z,8480.00
2018-07-07T04:16:15.981Z,8844.00
2018-07-07T04:17:15.959Z,9036.00
2018-07-07T04:18:15.932Z,9008.00
2018-07-07T04:19:15.908Z,9296.00
2018-07-07T04:20:15.888Z,9548.00
2018-07-07T04:21:15.857Z,9728.00
2018-07-07T04:22:15.834Z,9984.00
2018-07-07T04:23:15.809Z,10192.00
2018-07-07T04:24:15.784Z,10192.00
2018-07-07T04:25:15.763Z,10320.00
2018-07-07T04:26:15.738Z,10984.00
2018-07-07T04:27:15.712Z,11132.00
2018-07-07T04:28:15.691Z,11268.00
2018-07-07T04:29:15.666Z,11468.00
2018-07-07T04:30:15.644Z,11888.00
2018-07-07T04:31:15.621Z,12116.00
2018-07-07T04:32:15.594Z,12216.00
2018-07-07T04:33:15.571Z,12552.00
2018-07-07T04:34:15.546Z,12948.00
2018-07-07T04:35:15.522Z,13040.00
2018-07-07T04:36:15.499Z,12988.00
2018-07-07T04:37:15.477Z,13428.00
2018-07-07T04:38:15.505Z,13784.00
2018-07-07T04:39:15.430Z,14040.00
2018-07-07T04:40:15.405Z,14568.00
2018-07-07T04:41:15.382Z,14992.00
2018-07-07T04:42:15.359Z,15584.00
2018-07-07T04:43:15.333Z,16064.00
2018-07-07T04:44:15.315Z,16288.00
2018-07-07T04:45:15.293Z,16736.00
2018-07-07T04:46:15.267Z,17088.00
2018-07-07T04:47:15.245Z,17600.00
2018-07-07T04:48:15.219Z,17728.00
2018-07-07T04:49:15.198Z,17664.00
2018-07-07T04:50:15.176Z,17760.00
2018-07-07T04:51:15.159Z,18304.00
2018-07-07T04:52:15.134Z,18656.00
2018-07-07T04:53:15.106Z,18592.00
2018-07-07T04:54:15.082Z,19104.00
2018-07-07T04:55:15.059Z,19392.00
2018-07-07T04:56:15.038Z,19456.00
2018-07-07T04:57:15.016Z,19808.00
2018-07-07T04:58:14.992Z,20288.00
2018-07-07T04:59:14.968Z,20256.00
2018-07-07T05:00:14.947Z,20384.00
2018-07-07T05:01:15.075Z,20672.00
2018-07-07T05:02:14.905Z,21472.00
2018-07-07T05:03:14.879Z,21760.00
2018-07-07T05:04:14.860Z,21888.00
2018-07-07T05:05:14.833Z,22048.00
2018-07-07T05:06:14.815Z,22560.00
2018-07-07T05:07:14.788Z,23424.00
2018-07-07T05:08:14.765Z,24800.00
2018-07-07T05:09:14.750Z,24832.00
2018-07-07T05:10:14.725Z,24160.00
2018-07-07T05:11:14.705Z,25088.00
2018-07-07T05:12:14.682Z,26144.00
2018-07-07T05:13:14.656Z,26272.00
2018-07-07T05:14:14.633Z,26368.00
2018-07-07T05:15:14.816Z,26176.00
2018-07-07T05:16:14.790Z,26368.00
2018-07-07T05:17:14.589Z,26656.00
2018-07-07T05:18:14.545Z,26592.00
2018-07-07T05:19:14.572Z,26912.00
2018-07-07T05:20:14.501Z,27328.00
2018-07-07T05:21:14.481Z,28224.00
2018-07-07T05:22:14.460Z,29056.00
2018-07-07T05:23:14.437Z,29792.00
2018-07-07T05:24:14.414Z,29184.00
2018-07-07T05:25:14.391Z,29600.00
2018-07-07T05:26:14.369Z,29952.00
2018-07-07T05:27:14.349Z,29440.00
2018-07-07T05:28:14.327Z,29024.00
2018-07-07T05:29:14.306Z,30240.00
2018-07-07T05:30:14.288Z,32192.00
2018-07-07T05:31:14.265Z,33152.00
2018-07-07T05:32:14.244Z,31264.00
2018-07-07T05:33:14.224Z,30464.00
2018-07-07T05:34:14.201Z,30944.00
2018-07-07T05:35:14.187Z,31456.00
2018-07-07T05:36:14.162Z,30784.00
2018-07-07T05:37:14.157Z,31840.00
2018-07-07T05:38:14.113Z,32416.00
2018-07-07T05:39:14.091Z,32448.00
2018-07-07T05:40:14.070Z,33792.00
2018-07-07T05:41:14.052Z,36352.00
2018-07-07T05:42:14.031Z,35872.00
2018-07-07T05:43:14.015Z,30944.00
2018-07-07T05:44:13.989Z,37216.00
2018-07-07T05:45:13.964Z,38688.00
2018-07-07T05:46:13.945Z,38816.00
2018-07-07T05:47:13.923Z,37632.00
2018-07-07T05:48:13.903Z,36512.00
2018-07-07T05:49:13.891Z,38496.00
2018-07-07T05:50:13.860Z,39328.00
2018-07-07T05:51:13.839Z,39200.00
2018-07-07T05:52:13.820Z,38176.00
2018-07-07T05:53:13.801Z,38208.00
2018-07-07T05:54:13.783Z,37472.00
2018-07-07T05:55:13.759Z,37312.00
2018-07-07T05:56:13.943Z,38656.00
2018-07-07T05:57:13.921Z,40224.00
2018-07-07T05:58:13.695Z,38304.00
2018-07-07T05:59:13.675Z,43232.00
2018-07-07T06:00:13.855Z,43104.00
2018-07-07T06:01:55.989Z,44224.00
2018-07-07T06:02:55.769Z,45536.00
2018-07-07T06:03:55.748Z,43424.00
2018-07-07T06:04:55.727Z,42880.00
2018-07-07T06:05:55.708Z,42016.00
2018-07-07T06:06:55.686Z,43616.00
2018-07-07T06:07:55.668Z,43232.00
2018-07-07T06:08:55.648Z,44480.00
2018-07-07T06:09:55.629Z,31744.00
2018-07-07T06:10:55.603Z,38752.00
2018-07-07T06:11:55.582Z,38080.00
2018-07-07T06:12:55.565Z,40832.00
2018-07-07T06:13:55.543Z,34752.00
2018-07-07T06:14:55.525Z,38528.00
2018-07-07T06:15:55.503Z,38112.00
2018-07-07T06:16:55.483Z,39520.00
2018-07-07T06:17:55.464Z,38048.00
2018-07-07T06:18:55.443Z,38176.00
2018-07-07T06:19:55.423Z,12004.00
2018-07-07T06:20:55.406Z,35168.00
2018-07-07T06:21:55.380Z,34912.00
2018-07-07T06:22:55.359Z,33312.00
2018-07-07T06:23:55.340Z,20960.00
2018-07-07T06:24:55.321Z,29696.00
2018-07-07T06:25:55.302Z,28704.00
2018-07-07T06:26:55.289Z,27040.00
2018-07-07T06:27:55.261Z,25760.00
2018-07-07T06:28:55.241Z,25760.00
2018-07-07T06:29:55.221Z,24928.00
2018-07-07T06:30:55.201Z,24896.00
2018-07-07T06:31:55.185Z,26656.00
2018-07-07T06:32:55.161Z,36320.00
2018-07-07T06:33:55.344Z,44960.00
2018-07-07T06:34:55.125Z,47008.00
2018-07-07T06:35:55.101Z,44736.00
2018-07-07T06:36:55.290Z,45824.00
2018-07-07T06:38:37.419Z,46304.00
2018-07-07T06:40:19.557Z,49152.00
2018-07-07T06:41:19.335Z,51936.00
2018-07-07T06:42:19.314Z,53120.00
2018-07-07T06:43:19.297Z,54368.00
2018-07-07T06:44:19.278Z,55104.00
2018-07-07T06:45:19.259Z,54528.00
2018-07-07T06:46:19.441Z,54656.00
2018-07-07T06:47:19.218Z,56224.00
2018-07-07T06:48:19.202Z,58176.00
2018-07-07T06:49:19.382Z,58272.00
2018-07-07T06:50:19.161Z,59008.00
2018-07-07T06:51:19.145Z,59104.00
2018-07-07T06:52:19.124Z,57792.00
2018-07-07T06:53:19.111Z,60224.00
2018-07-07T06:54:19.087Z,62720.00
2018-07-07T06:55:19.069Z,61984.00
2018-07-07T06:56:19.057Z,60736.00
2018-07-07T06:57:19.034Z,63584.00
2018-07-07T06:58:19.214Z,63616.00
2018-07-07T06:59:18.999Z,67680.00
2018-07-07T07:00:18.975Z,68832.00
2018-07-07T07:01:18.956Z,68480.00
2018-07-07T07:02:18.938Z,68096.00
2018-07-07T07:03:18.970Z,54400.00
2018-07-07T07:04:18.904Z,69120.00
2018-07-07T07:05:18.887Z,56288.00
2018-07-07T07:06:18.872Z,71200.00
2018-07-07T07:07:18.850Z,24992.00
2018-07-07T07:08:18.832Z,72544.00
2018-07-07T07:09:18.815Z,58560.00
2018-07-07T07:10:18.795Z,44864.00
2018-07-07T07:11:18.777Z,27392.00
2018-07-07T07:12:18.761Z,39552.00
2018-07-07T07:13:18.742Z,78720.00
2018-07-07T07:14:18.728Z,29152.00
2018-07-07T07:15:18.712Z,58432.00
2018-07-07T07:16:18.694Z,21216.00
2018-07-07T07:17:18.674Z,62912.00
2018-07-07T07:18:18.658Z,40224.00
2018-07-07T07:19:18.636Z,78368.00
2018-07-07T07:20:18.619Z,78432.00
2018-07-07T07:21:18.600Z,79712.00
2018-07-07T07:22:18.580Z,80160.00
2018-07-07T07:23:18.569Z,82624.00
2018-07-07T07:24:18.547Z,78944.00
2018-07-07T07:25:18.529Z,83392.00
2018-07-07T07:26:18.557Z,59648.00
2018-07-07T07:27:18.495Z,83104.00
2018-07-07T07:28:18.481Z,78496.00
2018-07-07T07:29:18.458Z,79808.00
2018-07-07T07:30:18.642Z,83488.00
2018-07-07T07:31:18.428Z,87040.00
2018-07-07T07:32:18.405Z,82880.00
2018-07-07T07:33:18.386Z,79616.00
2018-07-07T07:34:18.571Z,79328.00
2018-07-07T07:35:18.390Z,81344.00
2018-07-07T07:36:18.336Z,83648.00
2018-07-07T07:37:18.526Z,88864.00
2018-07-07T07:38:18.502Z,87456.00
2018-07-07T07:39:21.106Z,81312.00
2018-07-07T07:44:49.234Z,89856.00
2018-07-07T07:45:49.219Z,89152.00
2018-07-07T07:46:50.413Z,87232.00
2018-07-07T07:47:48.987Z,89472.00
2018-07-07T07:48:48.968Z,90368.00
2018-07-07T07:49:48.950Z,84096.00
2018-07-07T07:50:48.934Z,81088.00
2018-07-07T07:51:48.919Z,79264.00
2018-07-07T07:52:48.983Z,82176.00
2018-07-07T07:53:48.882Z,82880.00
2018-07-07T07:54:48.864Z,82432.00
2018-07-07T07:55:48.854Z,82944.00
2018-07-07T07:56:48.884Z,80928.00
2018-07-07T07:57:48.816Z,70304.00
2018-07-07T07:58:48.800Z,79808.00
2018-07-07T07:59:48.784Z,79136.00
2018-07-07T08:00:48.770Z,84928.00
2018-07-07T08:01:48.751Z,69120.00
2018-07-07T08:02:48.734Z,35072.00
2018-07-07T08:03:48.717Z,74080.00
2018-07-07T08:04:48.751Z,85088.00
2018-07-07T08:05:48.684Z,24800.00
2018-07-07T08:06:48.667Z,69536.00
2018-07-07T08:07:48.663Z,80448.00
2018-07-07T08:08:48.643Z,87168.00
2018-07-07T08:09:48.826Z,80928.00
2018-07-07T08:10:48.604Z,80928.00
2018-07-07T08:11:48.587Z,86976.00
2018-07-07T08:12:48.568Z,89408.00
2018-07-07T08:13:48.758Z,91680.00
2018-07-07T08:14:48.538Z,98784.00
2018-07-07T08:15:48.726Z,46400.00
2018-07-07T08:16:48.505Z,75520.00
2018-07-07T08:17:48.693Z,76704.00
2018-07-07T08:18:49.080Z,94112.00
2018-07-07T08:19:48.660Z,85952.00
2018-07-07T08:20:48.445Z,25824.00
2018-07-07T08:21:48.424Z,90208.00
2018-07-07T08:22:48.434Z,90752.00
2018-07-07T08:23:48.390Z,89184.00
2018-07-07T08:24:48.375Z,89632.00
2018-07-07T08:25:48.560Z,89696.00
2018-07-07T08:26:48.342Z,88672.00
2018-07-07T08:27:48.533Z,89440.00
2018-07-07T08:28:48.316Z,90688.00
2018-07-07T08:29:48.295Z,89664.00
2018-07-07T08:30:48.280Z,81408.00
2018-07-07T08:31:48.474Z,92192.00
2018-07-07T08:32:48.452Z,83328.00
2018-07-07T08:33:48.242Z,20448.00
2018-07-07T08:34:48.218Z,81632.00
2018-07-07T08:35:48.200Z,97536.00
2018-07-07T08:36:48.185Z,89472.00
2018-07-07T08:37:48.177Z,89280.00
2018-07-07T08:38:48.153Z,91296.00
2018-07-07T08:39:48.139Z,93728.00
2018-07-07T08:40:48.129Z,93184.00
2018-07-07T08:41:48.119Z,94368.00
2018-07-07T08:42:48.295Z,94144.00
2018-07-07T08:43:48.278Z,92800.00
2018-07-07T08:44:48.428Z,93632.00
2018-07-07T08:45:48.250Z,92128.00
2018-07-07T08:46:48.036Z,95744.00
2018-07-07T08:47:48.218Z,96992.00
2018-07-07T08:48:48.005Z,92480.00
2018-07-07T08:49:48.186Z,91808.00
2018-07-07T08:50:48.180Z,96320.00
2018-07-07T08:51:48.155Z,96256.00
2018-07-07T08:52:47.943Z,97056.00
2018-07-07T08:53:47.922Z,99008.00
2018-07-07T08:54:47.906Z,97568.00
2018-07-07T08:55:47.898Z,98144.00
2018-07-07T08:56:47.881Z,93952.00
2018-07-07T08:57:47.861Z,93888.00
2018-07-07T08:58:47.847Z,95264.00
2018-07-07T08:59:47.834Z,97824.00
2018-07-07T09:00:47.816Z,102464.00
2018-07-07T09:01:48.003Z,103968.00
2018-07-07T09:02:47.789Z,102752.00
2018-07-07T09:03:47.777Z,105760.00
2018-07-07T09:04:47.958Z,107552.00
2018-07-07T09:05:47.944Z,60256.00
2018-07-07T09:06:47.928Z,97824.00
2018-07-07T09:07:47.970Z,101120.00
2018-07-07T09:08:47.701Z,99936.00
2018-07-07T09:09:47.683Z,101504.00
2018-07-07T09:10:47.667Z,104768.00
2018-07-07T09:11:47.853Z,103136.00
2018-07-07T09:12:47.635Z,103360.00
2018-07-07T09:13:47.621Z,103008.00
2018-07-07T09:14:47.605Z,102080.00
2018-07-07T09:15:47.592Z,101760.00
2018-07-07T09:16:47.578Z,103872.00
2018-07-07T09:17:47.563Z,103040.00
2018-07-07T09:18:47.577Z,98144.00
2018-07-07T09:19:47.561Z,97792.00
2018-07-07T09:20:47.667Z,102464.00
2018-07-07T09:21:47.501Z,101728.00
2018-07-07T09:22:47.487Z,98176.00
2018-07-07T09:23:47.470Z,100672.00
2018-07-07T09:24:47.455Z,103456.00
2018-07-07T09:25:47.443Z,102496.00
2018-07-07T09:26:47.425Z,102976.00
2018-07-07T09:27:47.413Z,105728.00
2018-07-07T09:28:47.399Z,108096.00
2018-07-07T09:30:29.748Z,113760.00
2018-07-07T09:31:29.526Z,114880.00
2018-07-07T09:32:29.510Z,117888.00
2018-07-07T09:33:29.499Z,54240.00
2018-07-07T09:34:29.484Z,91936.00
2018-07-07T09:35:29.468Z,115040.00
2018-07-07T09:36:29.457Z,103776.00
2018-07-07T09:37:29.439Z,42400.00
2018-07-07T09:38:29.424Z,114464.00
2018-07-07T09:39:29.409Z,105888.00
2018-07-07T09:40:29.393Z,110240.00
2018-07-07T09:41:29.381Z,108128.00
2018-07-07T09:42:29.365Z,103904.00
2018-07-07T09:43:29.350Z,42336.00
2018-07-07T09:44:29.336Z,111520.00
2018-07-07T09:45:29.320Z,112928.00
2018-07-07T09:46:29.305Z,68096.00
2018-07-07T09:47:29.491Z,109920.00
2018-07-07T09:48:29.275Z,113792.00
2018-07-07T09:49:29.258Z,112608.00
2018-07-07T09:50:29.247Z,107296.00
2018-07-07T09:51:29.227Z,111936.00
2018-07-07T09:52:29.212Z,118784.00
2018-07-07T09:53:29.201Z,50944.00
2018-07-07T09:54:29.185Z,44992.00
2018-07-07T09:55:29.170Z,85760.00
2018-07-07T09:56:29.159Z,45472.00
2018-07-07T09:57:29.138Z,33408.00
2018-07-07T09:58:29.123Z,64704.00
2018-07-07T09:59:29.107Z,108704.00
2018-07-07T10:00:29.095Z,115328.00
2018-07-07T10:01:29.078Z,109216.00
2018-07-07T10:02:29.063Z,43520.00
2018-07-07T10:03:29.046Z,96832.00
2018-07-07T10:04:29.031Z,114528.00
2018-07-07T10:05:29.019Z,108704.00
2018-07-07T10:06:29.004Z,106144.00
2018-07-07T10:07:29.031Z,104096.00
2018-07-07T10:08:28.974Z,103520.00
2018-07-07T10:09:28.960Z,96096.00
2018-07-07T10:10:28.943Z,75008.00
2018-07-07T10:11:28.927Z,111520.00
2018-07-07T10:12:28.911Z,114112.00
2018-07-07T10:13:28.945Z,110304.00
2018-07-07T10:14:28.886Z,119616.00
2018-07-07T10:15:28.869Z,38272.00
2018-07-07T10:16:28.855Z,120480.00
2018-07-07T10:17:28.839Z,122944.00
2018-07-07T10:18:29.028Z,70528.00
2018-07-07T10:19:28.809Z,100992.00
2018-07-07T10:20:28.796Z,112992.00
2018-07-07T10:21:28.780Z,117952.00
2018-07-07T10:22:28.761Z,116416.00
2018-07-07T10:23:28.745Z,120576.00
2018-07-07T10:24:28.730Z,82880.00
2018-07-07T10:25:28.720Z,130368.00
2018-07-07T10:26:28.702Z,44128.00
2018-07-07T10:27:28.686Z,110304.00
2018-07-07T10:28:28.670Z,103488.00
2018-07-07T10:29:28.654Z,113280.00
2018-07-07T10:30:28.638Z,113920.00
2018-07-07T10:31:28.658Z,114688.00
2018-07-07T10:32:28.607Z,114304.00
2018-07-07T10:33:28.594Z,100992.00
2018-07-07T10:34:28.586Z,59040.00
2018-07-07T10:35:28.566Z,115296.00
2018-07-07T10:36:28.553Z,50048.00
2018-07-07T10:37:28.548Z,90432.00
2018-07-07T10:38:28.518Z,118912.00
2018-07-07T10:39:28.504Z,115040.00
2018-07-07T10:40:28.488Z,115040.00
2018-07-07T10:41:28.487Z,117728.00
2018-07-07T10:42:28.663Z,39680.00
2018-07-07T10:43:28.447Z,88544.00
2018-07-07T10:44:28.433Z,93280.00
2018-07-07T10:45:28.457Z,112736.00
2018-07-07T10:46:28.401Z,111200.00
2018-07-07T10:47:28.500Z,111968.00
2018-07-07T10:48:28.371Z,115840.00
2018-07-07T10:49:28.358Z,114208.00
2018-07-07T10:50:28.342Z,113536.00
2018-07-07T10:51:28.326Z,116096.00
2018-07-07T10:52:28.311Z,114464.00
2018-07-07T10:53:28.502Z,113344.00
2018-07-07T10:54:28.286Z,111584.00
2018-07-07T10:55:28.292Z,110304.00
2018-07-07T10:56:28.255Z,109504.00
2018-07-07T10:57:28.239Z,112608.00
2018-07-07T10:58:28.225Z,113280.00
2018-07-07T10:59:28.210Z,110048.00
2018-07-07T11:00:28.197Z,110688.00
2018-07-07T11:01:28.184Z,112672.00
2018-07-07T11:02:28.222Z,110400.00
2018-07-07T11:03:28.158Z,111264.00
2018-07-07T11:04:28.147Z,112704.00
2018-07-07T11:05:28.131Z,112128.00
2018-07-07T11:06:28.113Z,111904.00
2018-07-07T11:07:28.099Z,113824.00
2018-07-07T11:08:28.085Z,114112.00
2018-07-07T11:09:28.073Z,114144.00
2018-07-07T11:10:28.258Z,114464.00
2018-07-07T11:11:28.243Z,112960.00
2018-07-07T11:12:28.230Z,111744.00
2018-07-07T11:13:28.016Z,113376.00
2018-07-07T11:14:28.009Z,114688.00
2018-07-07T11:15:27.995Z,112800.00
2018-07-07T11:16:27.974Z,109696.00
2018-07-07T11:17:27.959Z,108736.00
2018-07-07T11:18:27.947Z,109088.00
2018-07-07T11:19:27.931Z,111040.00
2018-07-07T11:20:27.920Z,116096.00
2018-07-07T11:21:27.910Z,115072.00
2018-07-07T11:22:28.099Z,117344.00
2018-07-07T11:23:27.876Z,71968.00
2018-07-07T11:24:27.863Z,117952.00
2018-07-07T11:25:27.857Z,115264.00
2018-07-07T11:26:27.838Z,113792.00
2018-07-07T11:27:27.823Z,111648.00
2018-07-07T11:28:27.811Z,113216.00
2018-07-07T11:29:27.794Z,112064.00
2018-07-07T11:30:27.781Z,112096.00
2018-07-07T11:31:27.766Z,116512.00
2018-07-07T11:32:27.755Z,115072.00
2018-07-07T11:33:27.741Z,115360.00
2018-07-07T11:34:27.728Z,109888.00
2018-07-07T11:35:27.714Z,109760.00
2018-07-07T11:36:27.779Z,112096.00
2018-07-07T11:37:27.687Z,102496.00
2018-07-07T11:38:27.674Z,118368.00
2018-07-07T11:39:27.662Z,116384.00
2018-07-07T11:40:27.644Z,110400.00
2018-07-07T11:41:27.631Z,104256.00
2018-07-07T11:42:27.619Z,107808.00
2018-07-07T11:43:27.602Z,114336.00
2018-07-07T11:44:27.589Z,118496.00
2018-07-07T11:45:27.576Z,121888.00
2018-07-07T11:46:27.564Z,61248.00
2018-07-07T11:47:27.550Z,57440.00
2018-07-07T11:48:27.537Z,115360.00
2018-07-07T11:49:27.521Z,115840.00
2018-07-07T11:50:27.517Z,117248.00
2018-07-07T11:51:27.499Z,114368.00
2018-07-07T11:52:27.482Z,110496.00
2018-07-07T11:53:27.465Z,111680.00
2018-07-07T11:54:27.453Z,115392.00
2018-07-07T11:55:27.438Z,103296.00
2018-07-07T11:56:27.428Z,102880.00
2018-07-07T11:57:27.417Z,104192.00
2018-07-07T11:58:27.400Z,111744.00
2018-07-07T11:59:27.387Z,115616.00
2018-07-07T12:00:27.372Z,118496.00
2018-07-07T12:01:27.363Z,116800.00
2018-07-07T12:02:27.343Z,117056.00
2018-07-07T12:03:27.330Z,116096.00
2018-07-07T12:04:27.343Z,117632.00
2018-07-07T12:05:27.316Z,116128.00
2018-07-07T12:06:27.298Z,113184.00
2018-07-07T12:07:27.274Z,108736.00
2018-07-07T12:08:27.290Z,114048.00
2018-07-07T12:09:27.254Z,117792.00